Time;durP1;ratioP1;P1;durP2;ratioP2;P2;SDS_P1;SDS_P2;PMS_P1;PMS_P2;Temp;Humidity;BMP_temperature;BMP_pressure;BME280_temperature;BME280_humidity;BME280_pressure;Samples;Min_cycle;Max_cycle;Signal;HPM_P1;HPM_P2
2022/04/02 00:01:44;;;;;;;29.52;22.52;;;256.10;2252.80;;;;;;5012619;28;20065;-75
2022/04/02 00:04:10;;;;;;;29.92;22.17;;;256.10;2252.80;;;;;;5012004;28;20033;-75
2022/04/02 00:06:37;;;;;;;30.55;22.08;;;256.10;2252.80;;;;;;4997376;28;20034;-75
2022/04/02 00:09:04;;;;;;;32.10;23.15;;;256.10;2252.80;;;;;;5012483;28;20483;-75
2022/04/02 00:11:30;;;;;;;36.33;24.98;;;256.10;2252.80;;;;;;4995602;28;20041;-75
2022/04/02 00:13:56;;;;;;;37.33;25.70;;;256.00;2252.80;;;;;;4994335;28;20030;-76
2022/04/02 00:16:22;;;;;;;34.97;25.10;;;256.00;2252.80;;;;;;5012857;28;20033;-75
2022/04/02 00:18:50;;;;;;;35.40;25.05;;;256.00;2252.80;;;;;;5012415;28;20135;-75
2022/04/02 00:21:17;;;;;;;33.38;23.90;;;256.00;2252.80;;;;;;4995099;28;20068;-76
2022/04/02 00:23:46;;;;;;;35.17;23.73;;;256.10;2252.80;;;;;;5012734;28;20394;-76
2022/04/02 00:26:14;;;;;;;33.92;26.15;;;256.00;2252.80;;;;;;5010916;28;20494;-76
2022/04/02 00:28:41;;;;;;;35.55;25.48;;;256.10;2252.80;;;;;;4994592;28;20034;-76
2022/04/02 00:31:08;;;;;;;38.35;26.90;;;256.10;2252.80;;;;;;5007666;28;20517;-76
2022/04/02 00:33:35;;;;;;;37.47;25.80;;;256.10;2252.80;;;;;;5011383;28;20037;-75
2022/04/02 00:36:01;;;;;;;38.28;27.00;;;256.10;2252.80;;;;;;5010979;28;20533;-75
2022/04/02 00:38:27;;;;;;;35.33;26.20;;;256.10;2252.80;;;;;;5012495;28;20038;-75
2022/04/02 00:40:53;;;;;;;36.40;26.58;;;256.00;2252.80;;;;;;5010343;28;20048;-75
2022/04/02 00:43:28;;;;;;;34.80;25.60;;;256.10;2252.80;;;;;;5012453;28;20038;-75
2022/04/02 00:46:00;;;;;;;35.47;24.35;;;256.10;2252.80;;;;;;5011128;28;20065;-75
2022/04/02 00:48:27;;;;;;;36.28;26.65;;;256.10;2252.80;;;;;;5012003;28;20030;-75
2022/04/02 00:50:55;;;;;;;32.38;24.58;;;256.10;2252.80;;;;;;5012452;28;20018;-75
2022/04/02 00:53:23;;;;;;;32.15;23.60;;;256.20;2252.80;;;;;;5012037;28;20029;-75
2022/04/02 00:55:49;;;;;;;31.40;22.45;;;256.20;2252.80;;;;;;5011124;28;20038;-75
2022/04/02 00:58:16;;;;;;;31.70;23.60;;;256.20;2252.80;;;;;;5011971;28;20041;-75
2022/04/02 01:00:42;;;;;;;33.95;23.23;;;256.20;2252.80;;;;;;5031095;28;20451;-75
2022/04/02 01:03:11;;;;;;;33.13;23.52;;;256.20;2252.80;;;;;;5017583;28;20030;-75
2022/04/02 01:05:38;;;;;;;35.05;24.23;;;256.20;2252.80;;;;;;5035816;28;20026;-75
2022/04/02 01:08:05;;;;;;;32.33;21.40;;;256.30;2252.80;;;;;;5018221;28;20033;-75
2022/04/02 01:10:36;;;;;;;31.40;23.40;;;256.20;2252.80;;;;;;5017879;28;20029;-75
2022/04/02 01:13:02;;;;;;;32.05;23.02;;;256.10;2252.80;;;;;;5017943;28;20103;-75
2022/04/02 01:15:28;;;;;;;30.73;23.05;;;231.30;2252.80;;;;;;5035599;28;20061;-75
2022/04/02 01:17:55;;;;;;;34.08;23.83;;;256.10;2252.80;;;;;;5035812;28;20054;-75
2022/04/02 01:20:23;;;;;;;32.35;23.50;;;256.10;2252.80;;;;;;5035371;28;20040;-75
2022/04/02 01:22:49;;;;;;;34.65;25.23;;;231.00;2252.80;;;;;;5017407;28;20124;-75
2022/04/02 01:25:15;;;;;;;33.97;24.08;;;231.20;2252.80;;;;;;5017297;28;20061;-75
2022/04/02 01:27:44;;;;;;;37.03;23.25;;;231.20;2252.80;;;;;;5035362;28;20061;-75
2022/04/02 01:30:10;;;;;;;31.65;22.88;;;231.20;2252.80;;;;;;5016931;28;20124;-75
2022/04/02 01:32:36;;;;;;;31.45;23.00;;;231.10;2252.80;;;;;;5035417;28;20041;-75
2022/04/02 01:35:02;;;;;;;32.78;22.58;;;231.00;2252.80;;;;;;5034286;28;20037;-75
2022/04/02 01:37:27;;;;;;;34.63;24.52;;;231.10;2252.80;;;;;;5020509;28;20037;-75
2022/04/02 01:39:53;;;;;;;31.20;24.60;;;231.10;2252.80;;;;;;4997881;28;20406;-75
2022/04/02 01:42:24;;;;;;;35.08;24.90;;;231.10;2252.80;;;;;;4997719;28;20030;-75
2022/04/02 01:44:51;;;;;;;31.55;22.48;;;231.10;2252.80;;;;;;5015186;28;20037;-75
2022/04/02 01:47:21;;;;;;;33.28;24.50;;;230.90;2252.80;;;;;;4997919;28;20038;-75
2022/04/02 01:49:48;;;;;;;30.55;23.83;;;230.90;2252.80;;;;;;5015226;28;20399;-75
2022/04/02 01:52:19;;;;;;;33.03;25.17;;;230.80;2252.80;;;;;;4997971;28;20444;-75
2022/04/02 01:54:45;;;;;;;30.40;22.58;;;230.90;2252.80;;;;;;5015113;28;20394;-75
2022/04/02 01:57:11;;;;;;;32.90;24.77;;;230.90;2252.80;;;;;;4997800;28;20034;-75
2022/04/02 01:59:39;;;;;;;34.30;24.65;;;230.80;2252.80;;;;;;4997195;28;20468;-75
2022/04/02 02:02:08;;;;;;;34.55;25.98;;;230.80;2252.80;;;;;;4997248;28;20038;-75
2022/04/02 02:04:34;;;;;;;36.25;25.58;;;230.80;2252.80;;;;;;4997741;28;20037;-78
2022/04/02 02:07:01;;;;;;;33.92;25.33;;;230.70;2252.80;;;;;;4997162;28;20038;-78
2022/04/02 02:09:27;;;;;;;38.35;29.13;;;230.70;2252.80;;;;;;4997574;28;20491;-75
2022/04/02 02:11:53;;;;;;;39.95;28.35;;;230.60;2252.80;;;;;;4997198;28;20083;-78
2022/04/02 02:14:18;;;;;;;37.35;26.75;;;230.50;2252.80;;;;;;5015526;28;20057;-77
2022/04/02 02:16:44;;;;;;;35.63;26.65;;;230.60;2252.80;;;;;;5014658;28;20586;-78
2022/04/02 02:19:10;;;;;;;34.67;26.58;;;230.50;2252.80;;;;;;4997293;28;20092;-78
2022/04/02 02:21:35;;;;;;;35.13;25.92;;;230.40;2252.80;;;;;;4996138;28;20046;-78
2022/04/02 02:24:02;;;;;;;35.75;27.00;;;230.40;2252.80;;;;;;4997266;28;20042;-78
2022/04/02 02:26:27;;;;;;;38.38;27.65;;;230.40;2252.80;;;;;;5014596;28;20085;-77
2022/04/02 02:28:53;;;;;;;36.05;26.42;;;230.40;2252.80;;;;;;5012899;28;20050;-77
2022/04/02 02:31:19;;;;;;;36.58;27.02;;;230.40;2252.80;;;;;;5013386;28;20042;-76
2022/04/02 02:36:28;;;;;;;38.40;27.20;;;205.60;2252.80;;;;;;5014575;28;20061;-75
2022/04/02 02:38:54;;;;;;;36.97;27.88;;;230.40;2252.80;;;;;;5014208;28;20030;-74
2022/04/02 02:41:20;;;;;;;37.63;28.35;;;205.70;2252.80;;;;;;4996868;28;20041;-75
2022/04/02 02:43:46;;;;;;;41.72;31.05;;;230.50;2252.80;;;;;;4996423;28;20091;-75
2022/04/02 02:46:17;;;;;;;40.05;29.02;;;230.40;2252.80;;;;;;5014133;28;20033;-76
2022/04/02 02:48:44;;;;;;;42.63;31.00;;;230.40;2252.80;;;;;;5014331;28;20812;-75
2022/04/02 02:51:10;;;;;;;42.30;30.10;;;205.70;2252.80;;;;;;4996473;28;20030;-75
2022/04/02 02:53:35;;;;;;;39.92;29.42;;;230.40;2252.80;;;;;;4996732;28;20111;-76
2022/04/02 02:56:01;;;;;;;40.97;28.52;;;205.70;2252.80;;;;;;5013850;28;20495;-77
2022/04/02 02:58:27;;;;;;;42.33;30.05;;;205.70;2252.80;;;;;;4996068;28;20434;-76
2022/04/02 03:00:53;;;;;;;42.53;29.90;;;205.70;2252.80;;;;;;5013668;28;20042;-77
2022/04/02 03:03:19;;;;;;;41.25;30.95;;;230.40;2252.80;;;;;;4996552;28;20092;-77
2022/04/02 03:05:46;;;;;;;43.47;30.73;;;230.40;2252.80;;;;;;4995536;28;20038;-76
2022/04/02 03:08:12;;;;;;;44.72;31.08;;;205.70;2252.80;;;;;;5013985;28;20061;-76
2022/04/02 03:10:38;;;;;;;43.47;31.73;;;205.70;2252.80;;;;;;4996419;28;20076;-76
2022/04/02 03:13:06;;;;;;;45.55;33.03;;;205.70;2252.80;;;;;;4995845;28;20034;-76
2022/04/02 03:15:32;;;;;;;46.30;32.75;;;205.70;2252.80;;;;;;5013944;28;20429;-77
2022/04/02 03:18:06;;;;;;;43.75;31.85;;;205.60;2252.80;;;;;;5013480;28;20048;-75
2022/04/02 03:20:33;;;;;;;42.35;30.48;;;205.60;2252.80;;;;;;5013886;28;20512;-76
2022/04/02 03:22:59;;;;;;;47.28;32.63;;;205.40;2252.80;;;;;;5013343;28;20100;-76
2022/04/02 03:25:24;;;;;;;48.20;33.83;;;205.30;2252.80;;;;;;5013142;28;20498;-77
2022/04/02 03:27:51;;;;;;;51.00;35.35;;;205.30;2252.80;;;;;;4995420;28;20084;-75
2022/04/02 03:30:20;;;;;;;51.58;37.45;;;205.30;2252.80;;;;;;5012946;28;20037;-75
2022/04/02 03:32:47;;;;;;;49.67;36.03;;;205.20;2252.80;;;;;;5013577;28;20037;-75
2022/04/02 03:35:14;;;;;;;51.03;33.55;;;205.10;2252.80;;;;;;5013113;28;20446;-74
2022/04/02 03:37:41;;;;;;;48.97;33.15;;;205.20;2252.80;;;;;;5013242;28;20114;-75
2022/04/02 03:40:10;;;;;;;51.28;31.92;;;205.10;2252.80;;;;;;4976550;28;20133;-75
2022/04/02 03:42:39;;;;;;;51.70;33.97;;;204.90;2252.80;;;;;;4993345;28;20522;-76
2022/04/02 03:45:06;;;;;;;51.45;34.75;;;204.90;2252.80;;;;;;4991135;28;20138;-75
2022/04/02 03:47:32;;;;;;;49.72;33.78;;;204.90;2252.80;;;;;;4993814;28;20515;-75
2022/04/02 03:49:58;;;;;;;50.72;33.80;;;204.90;2252.80;;;;;;4993741;28;20157;-75
2022/04/02 03:52:25;;;;;;;52.47;35.45;;;204.80;2252.80;;;;;;4976012;28;20053;-75
2022/04/02 03:54:51;;;;;;;55.03;37.47;;;204.80;2252.80;;;;;;4993821;28;20472;-74
2022/04/02 03:57:17;;;;;;;51.95;34.40;;;204.90;2252.80;;;;;;4992049;28;20066;-75
2022/04/02 03:59:43;;;;;;;54.15;35.58;;;204.90;2252.80;;;;;;4992367;28;20046;-74
2022/04/02 04:02:10;;;;;;;49.63;33.78;;;180.00;2252.80;;;;;;5008916;28;20034;-74
2022/04/02 04:04:37;;;;;;;56.38;37.00;;;180.10;2252.80;;;;;;4995584;28;20591;-74
2022/04/02 04:07:03;;;;;;;51.85;35.90;;;180.10;2252.80;;;;;;5012615;28;20025;-75
2022/04/02 04:09:29;;;;;;;59.03;37.00;;;180.00;2252.80;;;;;;4995362;28;20048;-75
2022/04/02 04:11:55;;;;;;;56.28;37.85;;;180.00;2252.80;;;;;;5012553;28;20030;-75
2022/04/02 04:14:22;;;;;;;61.25;39.15;;;180.00;2252.80;;;;;;4995151;28;20372;-75
2022/04/02 04:16:48;;;;;;;56.50;35.65;;;180.10;2252.80;;;;;;4994178;28;20044;-75
2022/04/02 04:19:14;;;;;;;50.10;34.22;;;180.00;2252.80;;;;;;4994499;28;20113;-75
2022/04/02 04:21:40;;;;;;;50.70;35.00;;;180.00;2252.80;;;;;;5012537;28;20113;-75
2022/04/02 04:24:08;;;;;;;53.58;35.83;;;179.90;2252.80;;;;;;5012252;28;20060;-75
2022/04/02 04:26:34;;;;;;;51.28;33.70;;;179.80;2252.80;;;;;;5012480;28;20061;-75
2022/04/02 04:29:00;;;;;;;53.10;34.50;;;179.80;2252.80;;;;;;4994552;28;20041;-75
2022/04/02 04:31:26;;;;;;;50.67;36.28;;;179.80;2252.80;;;;;;5012613;28;20483;-75
2022/04/02 04:33:52;;;;;;;51.75;33.35;;;179.70;2252.80;;;;;;4994425;28;20060;-75
2022/04/02 04:36:18;;;;;;;53.75;34.53;;;179.70;2252.80;;;;;;4993734;28;20030;-75
2022/04/02 04:38:45;;;;;;;51.90;35.45;;;179.70;2252.80;;;;;;5012217;28;20042;-75
2022/04/02 04:41:11;;;;;;;53.70;35.72;;;179.70;2252.80;;;;;;4994267;28;20042;-76
2022/04/02 04:43:40;;;;;;;51.72;35.13;;;179.70;2252.80;;;;;;5012340;28;20400;-75
2022/04/02 04:46:06;;;;;;;54.42;35.72;;;179.70;2252.80;;;;;;5012000;28;20037;-75
2022/04/02 04:48:31;;;;;;;54.72;36.10;;;179.70;2252.80;;;;;;5012244;28;20395;-75
2022/04/02 04:50:57;;;;;;;50.70;34.97;;;179.70;2252.80;;;;;;5010776;28;20034;-75
2022/04/02 04:53:23;;;;;;;61.55;38.28;;;179.70;2252.80;;;;;;4994962;28;20030;-75
2022/04/02 04:55:49;;;;;;;52.60;34.38;;;179.80;2252.80;;;;;;5010677;28;20030;-75
2022/04/02 04:58:14;;;;;;;53.53;34.97;;;179.90;2252.80;;;;;;4994705;28;20084;-75
2022/04/02 05:00:41;;;;;;;52.30;35.67;;;179.90;2252.80;;;;;;5011301;28;20045;-75
2022/04/02 05:03:08;;;;;;;52.92;35.85;;;179.90;2252.80;;;;;;5012394;28;20092;-75
2022/04/02 05:05:35;;;;;;;55.55;35.63;;;179.90;2252.80;;;;;;5011881;28;20520;-75
2022/04/02 05:08:01;;;;;;;53.50;35.92;;;179.90;2252.80;;;;;;5010014;28;20037;-75
2022/04/02 05:10:28;;;;;;;49.38;34.55;;;179.90;2252.80;;;;;;5012250;28;20470;-75
2022/04/02 05:12:54;;;;;;;55.30;38.08;;;180.00;2252.80;;;;;;4994138;28;20497;-76
2022/04/02 05:15:20;;;;;;;54.10;35.92;;;180.00;2252.80;;;;;;4994548;28;20394;-76
2022/04/02 05:17:46;;;;;;;58.65;35.30;;;179.90;2252.80;;;;;;4994341;28;20398;-76
2022/04/02 05:20:14;;;;;;;54.90;35.92;;;179.90;2252.80;;;;;;5012192;28;20040;-76
2022/04/02 05:22:43;;;;;;;57.67;35.88;;;179.70;2252.80;;;;;;5009979;28;20034;-75
2022/04/02 05:25:10;;;;;;;52.38;34.22;;;179.80;2252.80;;;;;;4993599;28;20042;-75
2022/04/02 05:27:40;;;;;;;55.85;36.70;;;179.80;2252.80;;;;;;4993066;28;20042;-75
2022/04/02 05:30:06;;;;;;;51.88;36.13;;;179.80;2252.80;;;;;;4993950;28;20124;-75
2022/04/02 05:32:32;;;;;;;52.85;36.67;;;179.80;2252.80;;;;;;4993520;28;20030;-75
2022/04/02 05:34:58;;;;;;;52.75;35.83;;;179.80;2252.80;;;;;;4993844;28;20038;-76
2022/04/02 05:37:24;;;;;;;51.15;36.35;;;179.90;2252.80;;;;;;4994019;28;20034;-75
2022/04/02 05:39:50;;;;;;;55.00;36.65;;;179.80;2252.80;;;;;;4993752;28;20038;-75
2022/04/02 05:42:16;;;;;;;53.50;36.83;;;179.80;2252.80;;;;;;4993921;28;20125;-75
2022/04/02 05:44:42;;;;;;;55.92;34.63;;;179.80;2252.80;;;;;;4993887;28;20068;-75
2022/04/02 05:47:09;;;;;;;52.47;35.08;;;179.70;2252.80;;;;;;5011903;28;20042;-76
2022/04/02 05:49:35;;;;;;;53.25;35.33;;;179.70;2252.80;;;;;;4997496;28;20045;-75
2022/04/02 05:52:01;;;;;;;54.13;37.33;;;179.80;2252.80;;;;;;4997479;28;20514;-75
2022/04/02 05:54:27;;;;;;;52.35;35.13;;;179.80;2252.80;;;;;;4997660;28;20038;-75
2022/04/02 05:56:53;;;;;;;55.63;34.65;;;179.80;2252.80;;;;;;5014358;28;20113;-76
2022/04/02 05:59:20;;;;;;;52.45;34.75;;;179.90;2252.80;;;;;;5014944;28;20129;-75
2022/04/02 06:01:46;;;;;;;50.35;34.45;;;179.80;2252.80;;;;;;5014689;28;20460;-75
2022/04/02 06:04:12;;;;;;;51.55;32.83;;;179.70;2252.80;;;;;;5013985;28;20041;-74
2022/04/02 06:06:37;;;;;;;44.90;30.98;;;179.60;2252.80;;;;;;5014308;28;20037;-74
2022/04/02 06:09:04;;;;;;;50.95;34.85;;;179.70;2252.80;;;;;;5014915;28;20038;-75
2022/04/02 06:11:30;;;;;;;55.65;35.45;;;179.70;2022.40;;;;;;5014529;28;20026;-75
2022/04/02 06:13:56;;;;;;;55.75;35.80;;;179.70;2252.80;;;;;;5014768;28;20386;-75
2022/04/02 06:16:23;;;;;;;51.75;34.78;;;179.70;2252.80;;;;;;5014453;28;20033;-76
2022/04/02 06:18:49;;;;;;;52.13;34.78;;;179.80;2252.80;;;;;;5014444;28;20041;-76
2022/04/02 06:21:15;;;;;;;53.13;35.33;;;179.80;2252.80;;;;;;4997595;28;20034;-75
2022/04/02 06:23:42;;;;;;;53.22;35.63;;;179.80;2252.80;;;;;;5014286;28;20037;-75
2022/04/02 06:26:09;;;;;;;55.63;37.20;;;179.80;2252.80;;;;;;5014097;28;20418;-76
2022/04/02 06:28:37;;;;;;;46.45;31.10;;;179.80;2252.80;;;;;;4996075;28;20029;-76
2022/04/02 06:31:03;;;;;;;52.25;33.70;;;179.80;2252.80;;;;;;4996868;28;20037;-76
2022/04/02 06:33:29;;;;;;;51.75;34.45;;;179.90;2252.80;;;;;;4996659;28;20030;-75
2022/04/02 06:35:55;;;;;;;48.53;33.90;;;179.90;2252.80;;;;;;5014545;28;20037;-76
2022/04/02 06:38:21;;;;;;;47.13;33.45;;;179.90;2252.80;;;;;;4980264;28;20038;-77
2022/04/02 06:40:46;;;;;;;51.10;34.80;;;179.90;1945.60;;;;;;5005366;28;20121;-77
2022/04/02 06:43:13;;;;;;;50.00;34.25;;;180.10;1894.40;;;;;;5013558;28;20458;-77
2022/04/02 06:45:39;;;;;;;56.30;35.92;;;180.10;1971.20;;;;;;5014011;28;20084;-77
2022/04/02 06:48:05;;;;;;;52.50;35.45;;;180.10;2252.80;;;;;;4996926;28;20913;-77
2022/04/02 06:50:31;;;;;;;50.28;34.03;;;204.90;2252.80;;;;;;5013837;28;20049;-77
2022/04/02 06:52:57;;;;;;;52.03;33.42;;;204.80;2252.80;;;;;;4996689;28;20093;-76
2022/04/02 06:55:23;;;;;;;52.00;34.78;;;204.90;2252.80;;;;;;5013806;28;20034;-75
2022/04/02 06:57:53;;;;;;;49.70;33.35;;;205.00;2252.80;;;;;;4996725;28;20451;-76
2022/04/02 07:00:19;;;;;;;51.55;34.08;;;205.10;2252.80;;;;;;5008002;28;20132;-76
2022/04/02 07:02:44;;;;;;;47.65;32.88;;;205.10;2252.80;;;;;;5010153;28;20042;-75
2022/04/02 07:05:10;;;;;;;47.60;33.35;;;205.20;2252.80;;;;;;5011574;28;20049;-75
2022/04/02 07:07:36;;;;;;;51.72;35.13;;;205.30;2252.80;;;;;;5011181;28;20121;-75
2022/04/02 07:10:06;;;;;;;50.72;36.10;;;205.10;2252.80;;;;;;5012786;28;20045;-76
2022/04/02 07:12:33;;;;;;;53.33;33.70;;;205.20;2252.80;;;;;;5012839;28;20100;-77
2022/04/02 07:14:59;;;;;;;51.88;34.83;;;205.10;2252.80;;;;;;5012128;28;20045;-76
2022/04/02 07:17:27;;;;;;;50.60;33.75;;;205.30;2252.80;;;;;;5012164;28;20117;-76
2022/04/02 07:19:55;;;;;;;54.97;36.17;;;205.40;2252.80;;;;;;5008692;28;20064;-77
2022/04/02 07:22:22;;;;;;;48.10;34.53;;;205.60;2252.80;;;;;;5012883;28;20030;-76
2022/04/02 07:24:49;;;;;;;51.92;34.88;;;205.60;2252.80;;;;;;5012380;28;20041;-77
2022/04/02 07:27:16;;;;;;;54.05;34.28;;;205.60;2252.80;;;;;;5012791;28;20060;-76
2022/04/02 07:29:42;;;;;;;53.03;35.55;;;205.70;2252.80;;;;;;5011114;28;20477;-77
2022/04/02 07:32:09;;;;;;;51.53;34.67;;;205.70;2252.80;;;;;;5011619;28;20518;-77
2022/04/02 07:34:35;;;;;;;47.85;34.30;;;230.50;2252.80;;;;;;5004581;28;20551;-77
2022/04/02 07:37:32;;;;;;;54.08;37.47;;;230.70;2252.80;;;;;;5012971;28;20037;-77
2022/04/02 07:40:12;;;;;;;49.22;33.53;;;230.90;2252.80;;;;;;5027684;28;20038;-76
2022/04/02 07:43:05;;;;;;;48.53;33.83;;;230.80;2252.80;;;;;;5020237;28;20114;-78
2022/04/02 07:45:39;;;;;;;47.40;33.58;;;230.90;2252.80;;;;;;5014214;28;20034;-77
2022/04/02 07:48:07;;;;;;;49.17;34.45;;;230.70;2252.80;;;;;;5011241;28;20030;-78
2022/04/02 07:50:34;;;;;;;49.25;35.63;;;230.90;2252.80;;;;;;5020352;28;20513;-78
2022/04/02 07:53:01;;;;;;;50.45;35.65;;;230.90;2252.80;;;;;;5012394;28;20549;-76
2022/04/02 07:55:31;;;;;;;51.88;35.08;;;230.90;2252.80;;;;;;5010557;28;20034;-78
2022/04/02 07:58:02;;;;;;;50.78;35.97;;;230.90;2252.80;;;;;;5006756;28;20040;-78
2022/04/02 08:00:28;;;;;;;51.88;36.05;;;231.10;2252.80;;;;;;5010562;28;20050;-78
2022/04/02 08:02:55;;;;;;;51.25;35.42;;;231.20;2252.80;;;;;;5011823;28;20402;-77
2022/04/02 08:05:22;;;;;;;53.13;33.70;;;231.10;2252.80;;;;;;5007472;28;20042;-78
2022/04/02 08:07:55;;;;;;;50.80;33.20;;;231.20;2252.80;;;;;;5010181;28;20494;-78
2022/04/02 08:10:26;;;;;;;46.95;32.78;;;231.20;2252.80;;;;;;5004380;28;20104;-77
2022/04/02 08:12:54;;;;;;;43.95;31.42;;;231.30;2252.80;;;;;;5009526;28;20041;-77
2022/04/02 08:15:21;;;;;;;48.55;34.95;;;231.20;2252.80;;;;;;5011190;28;20014;-77
2022/04/02 08:17:54;;;;;;;53.83;37.00;;;231.20;2252.80;;;;;;5006757;28;20069;-77
2022/04/02 08:20:21;;;;;;;53.10;35.50;;;231.30;2252.80;;;;;;5023769;28;20088;-78
2022/04/02 08:22:47;;;;;;;50.72;35.08;;;231.30;2252.80;;;;;;5010026;28;20037;-78
2022/04/02 08:25:14;;;;;;;46.95;33.45;;;256.10;2252.80;;;;;;5007059;28;20041;-77
2022/04/02 08:27:51;;;;;;;51.38;34.55;;;256.20;2252.80;;;;;;5009952;28;20088;-77
2022/04/02 08:30:32;;;;;;;66.78;42.00;;;256.10;2252.80;;;;;;5019447;28;20034;-77
2022/04/02 08:33:36;;;;;;;48.70;33.50;;;256.40;2252.80;;;;;;5009645;28;20038;-77
2022/04/02 08:36:21;;;;;;;49.33;33.30;;;256.30;2252.80;;;;;;5025250;28;20038;-77
2022/04/02 08:39:01;;;;;;;52.15;34.25;;;256.50;2252.80;;;;;;5011596;28;20026;-78
2022/04/02 08:41:49;;;;;;;47.85;34.20;;;256.40;2252.80;;;;;;5026634;28;20498;-77
2022/04/02 08:44:34;;;;;;;52.15;33.78;;;256.20;2252.80;;;;;;5013098;28;20038;-77
2022/04/02 08:47:28;;;;;;;47.17;31.85;;;256.30;2252.80;;;;;;5018246;28;20058;-77
2022/04/02 08:50:05;;;;;;;59.95;35.75;;;256.60;2252.80;;;;;;5026656;28;20038;-77
2022/04/02 08:52:55;;;;;;;46.25;30.17;;;256.80;2252.80;;;;;;5024145;28;20105;-77
2022/04/02 08:55:41;;;;;;;49.22;33.65;;;256.90;2252.80;;;;;;5000936;28;20043;-77
2022/04/02 08:58:22;;;;;;;48.25;31.75;;;256.90;2252.80;;;;;;5009671;28;20096;-77
2022/04/02 09:01:10;;;;;;;48.67;32.08;;;256.70;2252.80;;;;;;5009942;28;20072;-77
2022/04/02 09:03:56;;;;;;;50.72;34.55;;;256.60;2252.80;;;;;;5011488;28;20711;-77
2022/04/02 09:06:43;;;;;;;48.03;32.72;;;256.80;2252.80;;;;;;5005224;28;20509;-78
2022/04/02 09:09:51;;;;;;;46.38;32.03;;;281.60;2278.40;;;;;;5026402;28;20042;-78
2022/04/02 09:12:47;;;;;;;52.10;34.70;;;281.70;2278.40;;;;;;5011432;28;20420;-78
2022/04/02 09:15:17;;;;;;;43.65;32.25;;;282.20;2278.40;;;;;;5010667;28;20026;-77
2022/04/02 09:17:46;;;;;;;43.40;30.52;;;282.50;2278.40;;;;;;5002135;28;20133;-78
2022/04/02 09:20:49;;;;;;;44.85;32.22;;;307.70;2304.00;;;;;;5011302;28;20034;-78
2022/04/02 09:23:26;;;;;;;39.22;29.23;;;308.10;2304.00;;;;;;5022869;28;20026;-78
2022/04/02 09:26:29;;;;;;;40.17;31.00;;;333.00;2329.60;;;;;;5007883;28;20034;-78
2022/04/02 09:29:23;;;;;;;39.35;30.23;;;333.10;2329.60;;;;;;5012992;28;20042;-77
2022/04/02 09:32:07;;;;;;;45.15;31.17;;;333.00;2329.60;;;;;;5007384;28;20069;-78
2022/04/02 09:35:00;;;;;;;55.80;32.75;;;333.00;2329.60;;;;;;5012286;28;20029;-78
2022/04/02 09:37:50;;;;;;;39.03;32.15;;;333.30;2329.60;;;;;;5005392;28;20033;-77
2022/04/02 09:40:18;;;;;;;44.15;31.17;;;333.20;2329.60;;;;;;5015396;28;20041;-78
2022/04/02 09:42:46;;;;;;;47.22;33.70;;;333.30;2329.60;;;;;;5013953;28;20391;-78
2022/04/02 09:45:13;;;;;;;43.13;32.95;;;333.60;2329.60;;;;;;5013095;28;20037;-79
2022/04/02 09:47:48;;;;;;;42.55;31.33;;;333.60;2329.60;;;;;;5014118;28;20037;-78
2022/04/02 09:50:22;;;;;;;43.22;32.65;;;333.20;2329.60;;;;;;5012823;28;20184;-79
2022/04/02 09:52:51;;;;;;;44.08;32.55;;;358.60;2329.60;;;;;;5005245;28;20045;-77
2022/04/02 09:55:21;;;;;;;44.72;32.58;;;358.60;2329.60;;;;;;5013291;28;20037;-77
2022/04/02 09:58:28;;;;;;;43.88;32.10;;;333.70;2329.60;;;;;;5013029;28;20033;-77
2022/04/02 10:01:04;;;;;;;43.60;31.92;;;358.60;2329.60;;;;;;5016934;28;20065;-79
2022/04/02 10:03:38;;;;;;;39.38;31.55;;;358.80;2329.60;;;;;;5013762;28;20117;-79
2022/04/02 10:06:23;;;;;;;45.63;34.47;;;358.70;2329.60;;;;;;5014251;28;20037;-78
2022/04/02 10:08:55;;;;;;;47.88;35.53;;;333.40;2329.60;;;;;;5006218;28;20042;-78
2022/04/02 10:11:27;;;;;;;45.05;34.65;;;333.60;2329.60;;;;;;5013097;28;20034;-78
2022/04/02 10:13:57;;;;;;;46.58;35.00;;;333.70;2329.60;;;;;;5019391;28;20034;-78
2022/04/02 10:16:24;;;;;;;46.72;33.83;;;358.70;2329.60;;;;;;5012481;28;20034;-78
2022/04/02 10:18:53;;;;;;;41.33;31.30;;;358.50;2329.60;;;;;;5012628;28;20069;-78
2022/04/02 10:21:20;;;;;;;37.40;29.30;;;333.70;2329.60;;;;;;5012808;28;20038;-78
2022/04/02 10:23:52;;;;;;;54.42;34.92;;;333.70;2329.60;;;;;;5012883;28;20041;-78
2022/04/02 10:26:20;;;;;;;40.50;31.23;;;333.60;2329.60;;;;;;5013999;28;20037;-78
2022/04/02 10:28:46;;;;;;;56.60;34.75;;;333.70;2329.60;;;;;;5012859;28;20042;-79
2022/04/02 10:31:25;;;;;;;51.20;36.13;;;333.40;2329.60;;;;;;5012770;28;20399;-78
2022/04/02 10:33:56;;;;;;;48.08;34.78;;;332.90;2329.60;;;;;;5021184;28;20030;-77
2022/04/02 10:36:22;;;;;;;47.05;35.33;;;308.00;2304.00;;;;;;5012951;28;20398;-78
2022/04/02 10:38:51;;;;;;;45.88;33.90;;;308.00;2304.00;;;;;;5011646;28;20125;-76
2022/04/02 10:41:18;;;;;;;48.10;35.10;;;307.90;2304.00;;;;;;5014099;28;20553;-76
2022/04/02 10:44:21;;;;;;;42.50;33.00;;;307.50;2304.00;;;;;;5013584;28;20038;-76
2022/04/02 10:46:52;;;;;;;45.45;32.72;;;307.20;2304.00;;;;;;5026236;28;20034;-76
2022/04/02 10:49:23;;;;;;;45.10;32.33;;;307.20;2304.00;;;;;;5012872;28;20046;-76
2022/04/02 10:51:54;;;;;;;53.72;35.65;;;282.30;2278.40;;;;;;5014033;28;20030;-77
2022/04/02 10:54:27;;;;;;;53.28;37.83;;;282.20;2278.40;;;;;;5001683;28;20070;-77
2022/04/02 10:56:57;;;;;;;71.63;51.50;;;282.00;2278.40;;;;;;5012364;28;20117;-78
2022/04/02 10:59:26;;;;;;;68.60;47.65;;;281.80;2278.40;;;;;;5011683;28;20046;-78
2022/04/02 11:01:58;;;;;;;57.33;40.20;;;281.60;2278.40;;;;;;5013202;28;20041;-78
2022/04/02 11:04:57;;;;;;;46.25;34.10;;;256.90;2252.80;;;;;;5013149;28;20088;-77
2022/04/02 11:07:34;;;;;;;53.47;35.78;;;256.80;2252.80;;;;;;5011029;28;20049;-77
2022/04/02 11:10:00;;;;;;;55.97;37.42;;;256.70;2252.80;;;;;;5011953;28;20034;-80
2022/04/02 11:12:33;;;;;;;49.65;34.35;;;256.50;2252.80;;;;;;5013919;28;20589;-79
2022/04/02 11:15:17;;;;;;;50.33;33.97;;;256.50;2252.80;;;;;;5011641;28;20033;-78
2022/04/02 11:17:46;;;;;;;50.45;34.97;;;256.40;2252.80;;;;;;5013221;28;20490;-78
2022/04/02 11:20:20;;;;;;;51.05;35.70;;;256.30;2252.80;;;;;;5011563;28;20049;-78
2022/04/02 11:22:54;;;;;;;51.60;34.38;;;256.20;2252.80;;;;;;5012733;28;20030;-78
2022/04/02 11:25:31;;;;;;;54.65;34.20;;;256.10;2252.80;;;;;;5010701;28;20116;-78
2022/04/02 11:28:01;;;;;;;48.10;32.78;;;256.30;2252.80;;;;;;5024345;28;20042;-78
2022/04/02 11:30:29;;;;;;;56.20;36.78;;;256.30;2252.80;;;;;;5011769;28;20030;-78
2022/04/02 11:33:17;;;;;;;51.85;34.53;;;256.30;2252.80;;;;;;5012681;28;20120;-78
2022/04/02 11:35:50;;;;;;;52.80;36.65;;;256.30;2252.80;;;;;;5010213;28;20092;-78
2022/04/02 11:38:23;;;;;;;49.88;34.63;;;256.40;2252.80;;;;;;5009387;28;20521;-78
2022/04/02 11:41:03;;;;;;;55.78;36.53;;;256.40;2252.80;;;;;;5010561;28;20132;-78
2022/04/02 11:43:34;;;;;;;55.00;37.10;;;256.50;2252.80;;;;;;5011826;28;20038;-78
2022/04/02 11:46:01;;;;;;;57.10;37.88;;;256.50;2252.80;;;;;;5011388;28;20033;-78
2022/04/02 11:48:52;;;;;;;54.50;36.80;;;256.50;2252.80;;;;;;5010440;28;20037;-78
2022/04/02 11:51:24;;;;;;;56.80;36.63;;;256.60;2252.80;;;;;;5016288;28;20033;-78
2022/04/02 11:53:51;;;;;;;57.20;37.08;;;256.70;2252.80;;;;;;5010885;28;20034;-78
2022/04/02 11:56:34;;;;;;;51.58;35.33;;;256.80;2252.80;;;;;;5011648;28;20033;-78
2022/04/02 11:59:05;;;;;;;53.28;36.20;;;256.70;2252.80;;;;;;5010242;28;20042;-77
2022/04/02 12:01:50;;;;;;;47.17;32.55;;;256.90;2252.80;;;;;;5010429;28;20040;-78
2022/04/02 12:04:18;;;;;;;53.38;37.08;;;281.60;2278.40;;;;;;5011417;28;20033;-77
2022/04/02 12:06:46;;;;;;;56.03;37.22;;;256.90;2252.80;;;;;;5010394;28;20030;-77
2022/04/02 12:09:12;;;;;;;53.67;36.25;;;256.80;2252.80;;;;;;5009352;28;20038;-77
2022/04/02 12:11:42;;;;;;;53.72;36.70;;;281.60;2278.40;;;;;;5009922;28;20518;-77
2022/04/02 12:14:08;;;;;;;51.80;35.17;;;256.90;2252.80;;;;;;5010344;28;20030;-77
2022/04/02 12:16:38;;;;;;;49.63;34.15;;;281.60;2278.40;;;;;;5009513;28;20112;-77